createdAt,value
2023-05-03T00:02:07.967Z,7.27
2023-05-03T00:04:36.696Z,7.26
2023-05-03T00:07:06.872Z,7.23
2023-05-03T00:09:35.792Z,7.21
2023-05-03T00:12:06.143Z,7.20
2023-05-03T00:14:34.788Z,7.18
2023-05-03T00:17:03.362Z,7.18
2023-05-03T00:19:33.793Z,7.13
2023-05-03T00:22:02.364Z,7.10
2023-05-03T00:24:32.301Z,7.07
2023-05-03T00:27:00.885Z,7.03
2023-05-03T00:29:29.455Z,6.99
2023-05-03T00:32:00.840Z,6.93
2023-05-03T00:34:29.543Z,6.88
2023-05-03T00:36:58.077Z,6.84
2023-05-03T00:39:26.852Z,6.79
2023-05-03T00:41:59.448Z,6.74
2023-05-03T00:44:28.016Z,6.68
2023-05-03T00:46:57.871Z,6.65
2023-05-03T00:49:26.947Z,6.61
2023-05-03T00:51:55.690Z,6.57
2023-05-03T00:54:24.649Z,6.53
2023-05-03T00:56:53.288Z,6.51
2023-05-03T00:59:23.547Z,6.48
2023-05-03T01:01:53.880Z,6.48
2023-05-03T01:04:24.219Z,6.44
2023-05-03T01:07:00.727Z,6.40
2023-05-03T01:09:36.428Z,6.37
2023-05-03T01:12:15.884Z,6.33
2023-05-03T01:15:09.603Z,6.29
2023-05-03T01:17:43.355Z,6.24
2023-05-03T01:20:15.349Z,6.21
2023-05-03T01:22:48.402Z,6.16
2023-05-03T01:25:18.487Z,6.14
2023-05-03T01:27:46.981Z,6.11
2023-05-03T01:30:15.867Z,6.10
2023-05-03T01:32:56.190Z,6.07
2023-05-03T01:35:30.489Z,6.03
2023-05-03T01:37:59.960Z,6.01
2023-05-03T01:40:32.072Z,5.96
2023-05-03T01:43:04.272Z,5.95
2023-05-03T01:45:32.943Z,5.93
2023-05-03T01:48:01.637Z,5.89
2023-05-03T01:50:30.283Z,5.87
2023-05-03T01:52:58.929Z,5.86
2023-05-03T01:55:31.919Z,5.83
2023-05-03T01:58:00.788Z,5.81
2023-05-03T02:00:29.462Z,5.81
2023-05-03T02:02:58.375Z,5.80
2023-05-03T02:05:27.148Z,5.80
2023-05-03T02:07:56.008Z,5.79
2023-05-03T02:10:25.395Z,5.79
2023-05-03T02:12:58.871Z,5.77
2023-05-03T02:15:27.625Z,5.76
2023-05-03T02:17:58.588Z,5.74
2023-05-03T02:20:27.245Z,5.71
2023-05-03T02:22:56.084Z,5.70
2023-05-03T02:25:26.914Z,5.68
2023-05-03T02:27:56.116Z,5.65
2023-05-03T02:30:26.415Z,5.62
2023-05-03T02:32:55.013Z,5.61
2023-05-03T02:35:23.667Z,5.58
2023-05-03T02:37:52.502Z,5.57
2023-05-03T02:40:21.786Z,5.59
2023-05-03T02:45:38.567Z,5.63
2023-05-03T02:48:07.735Z,5.65
2023-05-03T02:50:37.022Z,5.68
2023-05-03T02:53:05.716Z,5.71
2023-05-03T02:55:34.365Z,5.74
2023-05-03T02:58:03.465Z,5.74
2023-05-03T03:00:32.250Z,5.76
2023-05-03T03:03:02.431Z,5.77
2023-05-03T03:05:31.258Z,5.79
2023-05-03T03:07:59.875Z,5.79
2023-05-03T03:10:29.384Z,5.79
2023-05-03T03:12:58.293Z,5.79
2023-05-03T03:15:33.967Z,5.78
2023-05-03T03:18:04.105Z,5.77
2023-05-03T03:20:32.912Z,5.77
2023-05-03T03:23:01.786Z,5.74
2023-05-03T03:25:30.458Z,5.70
2023-05-03T03:28:00.793Z,5.65
2023-05-03T03:30:30.438Z,5.61
2023-05-03T03:33:19.386Z,5.58
2023-05-03T03:35:48.626Z,5.53
2023-05-03T03:38:18.848Z,5.48
2023-05-03T03:40:57.964Z,5.45
2023-05-03T03:43:26.818Z,5.40
2023-05-03T03:45:55.415Z,5.37
2023-05-03T03:48:25.889Z,5.34
2023-05-03T03:50:56.446Z,5.34
2023-05-03T03:53:31.211Z,5.33
2023-05-03T03:55:59.739Z,5.32
2023-05-03T03:58:28.349Z,5.33
2023-05-03T04:00:57.890Z,5.33
2023-05-03T04:03:29.537Z,5.32
2023-05-03T04:05:58.999Z,5.31
2023-05-03T04:08:28.791Z,5.29
2023-05-03T04:10:57.565Z,5.27
2023-05-03T04:13:28.033Z,5.23
2023-05-03T04:15:58.327Z,5.23
2023-05-03T04:18:29.506Z,5.21
2023-05-03T04:21:00.014Z,5.20
2023-05-03T04:23:29.426Z,5.18
2023-05-03T04:25:58.000Z,5.19
2023-05-03T04:28:28.114Z,5.19
2023-05-03T04:31:00.150Z,5.18
2023-05-03T04:33:31.321Z,5.18
2023-05-03T04:36:04.496Z,5.19
2023-05-03T04:38:34.447Z,5.21
2023-05-03T04:41:06.608Z,5.21
2023-05-03T04:43:35.405Z,5.22
2023-05-03T04:46:04.981Z,5.24
2023-05-03T04:48:39.252Z,5.27
2023-05-03T04:51:07.734Z,5.28
2023-05-03T04:53:36.713Z,5.30
2023-05-03T04:56:10.573Z,5.32
2023-05-03T04:58:41.620Z,5.33
2023-05-03T05:01:10.710Z,5.34
2023-05-03T05:03:41.198Z,5.35
2023-05-03T05:06:16.548Z,5.36
2023-05-03T05:08:45.638Z,5.38
2023-05-03T05:11:16.798Z,5.40
2023-05-03T05:13:46.646Z,5.44
2023-05-03T05:16:15.817Z,5.46
2023-05-03T05:18:51.486Z,5.49
2023-05-03T05:21:24.444Z,5.53
2023-05-03T05:23:54.351Z,5.55
2023-05-03T05:26:22.987Z,5.59
2023-05-03T05:28:51.987Z,5.64
2023-05-03T05:31:22.030Z,5.68
2023-05-03T05:33:52.268Z,5.71
2023-05-03T05:36:21.125Z,5.76
2023-05-03T05:38:51.625Z,5.79
2023-05-03T05:41:21.262Z,5.84
2023-05-03T05:43:49.993Z,5.89
2023-05-03T05:46:21.209Z,5.95
2023-05-03T05:48:52.548Z,5.99
2023-05-03T05:51:22.019Z,6.04
2023-05-03T05:53:50.903Z,6.10
2023-05-03T05:56:21.681Z,6.15
2023-05-03T05:58:50.923Z,6.20
2023-05-03T06:01:20.045Z,6.25
2023-05-03T06:03:48.753Z,6.32
2023-05-03T06:06:19.081Z,6.37
2023-05-03T06:08:52.031Z,6.43
2023-05-03T06:11:22.581Z,6.48
2023-05-03T06:13:51.508Z,6.54
2023-05-03T06:16:21.904Z,6.61
2023-05-03T06:18:51.556Z,6.67
2023-05-03T06:21:22.564Z,6.74
2023-05-03T06:23:51.240Z,6.81
2023-05-03T06:26:19.866Z,6.87
2023-05-03T06:28:48.647Z,6.93
2023-05-03T06:31:17.596Z,7.00
2023-05-03T06:33:47.725Z,7.08
2023-05-03T06:36:17.164Z,7.15
2023-05-03T06:38:47.292Z,7.23
2023-05-03T06:41:16.206Z,7.29
2023-05-03T06:43:45.113Z,7.37
2023-05-03T06:46:14.297Z,7.43
2023-05-03T06:48:43.100Z,7.50
2023-05-03T06:51:12.265Z,7.59
2023-05-03T06:53:40.925Z,7.66
2023-05-03T06:56:12.038Z,7.72
2023-05-03T06:58:40.950Z,7.79
2023-05-03T07:01:09.893Z,7.85
2023-05-03T07:03:41.650Z,7.93
2023-05-03T07:06:11.428Z,7.99
2023-05-03T07:08:40.552Z,8.06
2023-05-03T07:11:11.064Z,8.12
2023-05-03T07:13:40.173Z,8.16
2023-05-03T07:16:09.137Z,8.24
2023-05-03T07:18:37.714Z,8.31
2023-05-03T07:21:08.665Z,8.37
2023-05-03T07:23:38.430Z,8.43
2023-05-03T07:26:07.091Z,8.50
2023-05-03T07:28:37.171Z,8.57
2023-05-03T07:31:05.811Z,8.63
2023-05-03T07:33:37.782Z,8.68
2023-05-03T07:36:07.490Z,8.75
2023-05-03T07:38:36.093Z,8.80
2023-05-03T07:41:04.756Z,8.84
2023-05-03T07:43:33.474Z,8.91
2023-05-03T07:46:04.156Z,8.96
2023-05-03T07:48:34.494Z,9.01
2023-05-03T07:51:05.065Z,9.05
2023-05-03T07:53:35.298Z,9.12
2023-05-03T07:56:04.069Z,9.19
2023-05-03T07:58:40.087Z,9.25
2023-05-03T08:01:13.650Z,9.33
2023-05-03T08:03:43.769Z,9.42
2023-05-03T08:06:12.532Z,9.49
2023-05-03T08:08:42.389Z,9.57
2023-05-03T08:11:11.169Z,9.66
2023-05-03T08:13:41.426Z,9.72
2023-05-03T08:16:12.618Z,9.78
2023-05-03T08:18:42.513Z,9.87
2023-05-03T08:21:13.508Z,9.93
2023-05-03T08:23:42.490Z,9.99
2023-05-03T08:26:11.110Z,10.07
2023-05-03T08:28:39.730Z,10.13
2023-05-03T08:31:08.569Z,10.20
2023-05-03T08:33:41.936Z,10.26
2023-05-03T08:36:10.562Z,10.31
2023-05-03T08:38:41.886Z,10.39
2023-05-03T08:41:20.106Z,10.46
2023-05-03T08:43:54.131Z,10.52
2023-05-03T08:46:23.188Z,10.58
2023-05-03T08:48:56.869Z,10.63
2023-05-03T08:51:29.053Z,10.68
2023-05-03T08:53:57.844Z,10.74
2023-05-03T08:56:31.111Z,10.78
2023-05-03T08:59:07.323Z,10.82
2023-05-03T09:01:37.608Z,10.85
2023-05-03T09:04:13.005Z,10.90
2023-05-03T09:06:42.161Z,10.94
2023-05-03T09:09:11.057Z,10.99
2023-05-03T09:11:40.214Z,11.02
2023-05-03T09:14:13.191Z,11.07
2023-05-03T09:16:44.583Z,11.11
2023-05-03T09:19:16.328Z,11.18
2023-05-03T09:21:47.031Z,11.22
2023-05-03T09:24:17.102Z,11.29
2023-05-03T09:26:47.196Z,11.35
2023-05-03T09:29:30.057Z,11.41
2023-05-03T09:32:05.416Z,11.48
2023-05-03T09:34:37.263Z,11.53
2023-05-03T09:37:10.222Z,11.59
2023-05-03T09:39:38.694Z,11.64
2023-05-03T09:42:15.458Z,11.69
2023-05-03T09:44:51.521Z,11.71
2023-05-03T09:47:21.514Z,11.72
2023-05-03T09:49:51.325Z,11.74
2023-05-03T09:52:23.404Z,11.78
2023-05-03T09:54:55.534Z,11.83
2023-05-03T09:57:24.522Z,11.89
2023-05-03T09:59:53.293Z,11.94
2023-05-03T10:02:22.581Z,11.96
2023-05-03T10:04:53.768Z,12.01
2023-05-03T10:07:24.239Z,12.08
2023-05-03T10:09:52.934Z,12.19
2023-05-03T10:12:23.588Z,12.28
2023-05-03T10:14:55.549Z,12.34
2023-05-03T10:17:45.600Z,12.41
2023-05-03T10:20:24.714Z,12.49
2023-05-03T10:23:09.999Z,12.55
2023-05-03T10:25:40.058Z,12.58
2023-05-03T10:28:10.153Z,12.64
2023-05-03T10:30:40.869Z,12.70
2023-05-03T10:33:33.888Z,12.79
2023-05-03T10:36:10.612Z,12.89
2023-05-03T10:38:43.750Z,12.97
2023-05-03T10:41:12.563Z,13.04
2023-05-03T10:43:46.485Z,13.11
2023-05-03T10:46:34.268Z,13.20
2023-05-03T10:49:21.623Z,13.24
2023-05-03T10:51:51.933Z,13.30
2023-05-03T10:54:20.748Z,13.37
2023-05-03T10:56:54.311Z,13.41
2023-05-03T10:59:25.467Z,13.48
2023-05-03T11:01:54.523Z,13.55
2023-05-03T11:04:46.732Z,13.70
2023-05-03T11:07:22.869Z,13.82
2023-05-03T11:09:51.911Z,13.91
2023-05-03T11:12:21.128Z,13.99
2023-05-03T11:14:51.738Z,14.09
2023-05-03T11:17:21.621Z,14.21
2023-05-03T11:19:51.562Z,14.30
2023-05-03T11:22:22.377Z,14.39
2023-05-03T11:24:51.860Z,14.48
2023-05-03T11:27:25.141Z,14.55
2023-05-03T11:29:58.641Z,14.62
2023-05-03T11:32:31.445Z,14.71
2023-05-03T11:35:03.867Z,14.83
2023-05-03T11:37:34.636Z,14.93
2023-05-03T11:40:05.070Z,15.02
2023-05-03T11:42:33.897Z,15.15
2023-05-03T11:45:04.248Z,15.24
2023-05-03T11:47:33.555Z,15.36
2023-05-03T11:50:02.448Z,15.47
2023-05-03T11:52:31.087Z,15.48
2023-05-03T11:55:05.619Z,15.50
2023-05-03T11:57:37.554Z,15.60
2023-05-03T12:00:17.339Z,15.70
2023-05-03T12:02:49.594Z,15.85
2023-05-03T12:05:19.143Z,15.98
2023-05-03T12:07:48.970Z,16.07
2023-05-03T12:10:23.461Z,16.14
2023-05-03T12:12:56.107Z,16.22
2023-05-03T12:15:30.361Z,16.34
2023-05-03T12:18:00.940Z,16.46
2023-05-03T12:23:05.251Z,16.64
2023-05-03T12:25:45.046Z,16.75
2023-05-03T12:28:20.480Z,16.84
2023-05-03T12:30:52.906Z,16.95
2023-05-03T12:33:23.093Z,16.99
2023-05-03T12:35:54.163Z,17.04
2023-05-03T12:38:25.220Z,17.11
2023-05-03T12:40:55.749Z,17.13
2023-05-03T12:43:24.411Z,17.16
2023-05-03T12:46:16.581Z,17.23
2023-05-03T12:48:46.165Z,17.36
2023-05-03T12:53:48.008Z,17.68
2023-05-03T12:56:18.281Z,17.81
2023-05-03T13:02:19.242Z,17.76
2023-05-03T13:04:40.703Z,17.76
2023-05-03T13:07:00.488Z,17.87
2023-05-03T13:10:12.209Z,18.01
2023-05-03T13:12:20.813Z,18.15
2023-05-03T13:14:49.958Z,18.28
2023-05-03T13:17:20.421Z,18.35
2023-05-03T13:19:49.533Z,18.38
2023-05-03T13:22:18.891Z,18.42
2023-05-03T13:24:48.409Z,18.56
2023-05-03T13:27:21.738Z,18.70
2023-05-03T13:29:50.406Z,18.62
2023-05-03T13:32:20.354Z,18.74
2023-05-03T13:34:50.113Z,18.97
2023-05-03T13:37:19.355Z,19.21
2023-05-03T13:39:48.201Z,19.39
2023-05-03T13:42:16.629Z,19.49
2023-05-03T13:44:48.058Z,19.57
2023-05-03T13:47:18.936Z,19.64
2023-05-03T13:49:47.301Z,19.75
2023-05-03T13:52:15.919Z,19.85
2023-05-03T13:54:44.522Z,19.96
2023-05-03T13:57:13.003Z,19.98
2023-05-03T13:59:41.573Z,20.06
2023-05-03T14:02:11.967Z,20.13
2023-05-03T14:04:42.269Z,20.22
2023-05-03T14:07:13.472Z,20.38
2023-05-03T14:09:42.346Z,20.48
2023-05-03T14:12:11.054Z,20.55
2023-05-03T14:14:39.929Z,20.62
2023-05-03T14:17:08.907Z,20.75
2023-05-03T14:19:39.165Z,20.88
2023-05-03T14:22:08.213Z,20.88
2023-05-03T14:24:37.361Z,20.88
2023-05-03T14:27:06.784Z,21.04
2023-05-03T14:29:35.391Z,21.27
2023-05-03T14:32:04.046Z,21.39
2023-05-03T14:34:32.820Z,21.57
2023-05-03T14:37:05.284Z,21.79
2023-05-03T14:39:35.608Z,22.00
2023-05-03T14:42:04.317Z,22.18
2023-05-03T14:44:33.122Z,22.35
2023-05-03T14:47:03.361Z,22.49
2023-05-03T14:49:37.237Z,22.40
2023-05-03T14:52:07.616Z,22.46
2023-05-03T14:54:36.072Z,22.60
2023-05-03T14:57:05.160Z,22.80
2023-05-03T14:59:34.289Z,22.96
2023-05-03T15:02:03.304Z,23.12
2023-05-03T15:04:31.923Z,23.28
2023-05-03T15:07:01.545Z,23.34
2023-05-03T15:09:31.826Z,23.45
2023-05-03T15:12:02.038Z,23.52
2023-05-03T15:14:49.406Z,23.58
2023-05-03T15:17:18.503Z,23.64
2023-05-03T15:19:47.978Z,23.71
2023-05-03T15:22:17.101Z,23.78
2023-05-03T15:24:47.317Z,23.76
2023-05-03T15:27:15.891Z,23.75
2023-05-03T15:29:44.554Z,23.72
2023-05-03T15:32:13.163Z,23.76
2023-05-03T15:34:41.829Z,23.74
2023-05-03T15:37:12.372Z,23.75
2023-05-03T15:39:41.238Z,23.78
2023-05-03T15:42:11.306Z,23.86
2023-05-03T15:44:40.122Z,23.88
2023-05-03T15:47:08.753Z,23.84
2023-05-03T15:49:37.263Z,23.76
2023-05-03T15:52:07.710Z,23.79
2023-05-03T15:54:37.716Z,23.83
2023-05-03T15:57:06.445Z,23.80
2023-05-03T15:59:36.353Z,23.82
2023-05-03T16:02:05.343Z,23.85
2023-05-03T16:04:34.028Z,23.93
2023-05-03T16:07:02.463Z,23.97
2023-05-03T16:09:31.167Z,23.99
2023-05-03T16:12:00.461Z,24.00
2023-05-03T16:14:29.355Z,24.01
2023-05-03T16:17:00.346Z,24.00
2023-05-03T16:19:28.961Z,24.07
2023-05-03T16:21:57.523Z,24.14
2023-05-03T16:24:26.228Z,24.20
2023-05-03T16:26:54.856Z,24.24
2023-05-03T16:29:23.434Z,24.22
2023-05-03T16:31:52.706Z,24.20
2023-05-03T16:34:22.953Z,24.14
2023-05-03T16:36:51.477Z,24.12
2023-05-03T16:39:20.173Z,24.07
2023-05-03T16:41:48.697Z,24.02
2023-05-03T16:44:18.536Z,24.01
2023-05-03T16:46:48.723Z,24.02
2023-05-03T16:49:18.466Z,24.00
2023-05-03T16:51:48.493Z,23.99
2023-05-03T16:54:19.090Z,23.98
2023-05-03T16:56:56.883Z,23.84
2023-05-03T16:59:28.540Z,23.73
2023-05-03T17:01:56.967Z,23.65
2023-05-03T17:04:25.422Z,23.56
2023-05-03T17:06:56.164Z,23.46
2023-05-03T17:09:24.837Z,23.33
2023-05-03T17:11:53.613Z,23.21
2023-05-03T17:14:22.260Z,23.11
2023-05-03T17:16:51.485Z,23.03
2023-05-03T17:19:20.837Z,22.88
2023-05-03T17:21:49.308Z,22.69
2023-05-03T17:24:19.592Z,22.45
2023-05-03T17:26:49.690Z,22.20
2023-05-03T17:29:18.269Z,21.89
2023-05-03T17:31:46.919Z,21.60
2023-05-03T17:34:15.889Z,21.36
2023-05-03T17:36:44.450Z,21.11
2023-05-03T17:39:13.205Z,20.91
2023-05-03T17:41:43.147Z,20.73
2023-05-03T17:44:12.488Z,20.51
2023-05-03T17:46:41.575Z,20.30
2023-05-03T17:49:10.784Z,20.14
2023-05-03T17:51:40.097Z,19.95
2023-05-03T17:54:09.034Z,19.80
2023-05-03T17:56:37.723Z,19.64
2023-05-03T17:59:08.099Z,19.47
2023-05-03T18:01:36.779Z,19.31
2023-05-03T18:04:05.829Z,19.16
2023-05-03T18:06:34.808Z,19.04
2023-05-03T18:09:07.183Z,18.91
2023-05-03T18:11:35.737Z,18.79
2023-05-03T18:14:04.295Z,18.66
2023-05-03T18:16:34.208Z,18.53
2023-05-03T18:19:03.677Z,18.41
2023-05-03T18:21:33.598Z,18.29
2023-05-03T18:24:02.398Z,18.19
2023-05-03T18:26:31.017Z,18.07
2023-05-03T18:28:59.950Z,17.97
2023-05-03T18:31:28.642Z,17.88
2023-05-03T18:33:58.856Z,17.76
2023-05-03T18:36:27.468Z,17.65
2023-05-03T18:38:56.170Z,17.55
2023-05-03T18:41:27.354Z,17.46
2023-05-03T18:43:58.002Z,17.34
2023-05-03T18:46:27.068Z,17.25
2023-05-03T18:48:55.844Z,17.15
2023-05-03T18:51:25.845Z,17.07
2023-05-03T18:53:54.428Z,16.96
2023-05-03T18:56:22.993Z,16.86
2023-05-03T18:58:51.624Z,16.77
2023-05-03T19:01:20.242Z,16.68
2023-05-03T19:03:48.963Z,16.59
2023-05-03T19:06:17.979Z,16.52
2023-05-03T19:08:49.516Z,16.44
2023-05-03T19:11:18.353Z,16.36
2023-05-03T19:13:47.531Z,16.29
2023-05-03T19:16:16.583Z,16.22
2023-05-03T19:18:45.494Z,16.14
2023-05-03T19:21:17.315Z,16.07
2023-05-03T19:23:47.685Z,16.00
2023-05-03T19:26:16.446Z,15.93
2023-05-03T19:28:45.233Z,15.85
2023-05-03T19:31:14.025Z,15.78
2023-05-03T19:33:42.718Z,15.70
2023-05-03T19:36:14.788Z,15.64
2023-05-03T19:38:43.592Z,15.60
2023-05-03T19:41:13.610Z,15.53
2023-05-03T19:43:42.713Z,15.48
2023-05-03T19:46:11.894Z,15.43
2023-05-03T19:48:40.507Z,15.36
2023-05-03T19:51:14.575Z,15.29
2023-05-03T19:53:43.208Z,15.24
2023-05-03T19:56:15.025Z,15.18
2023-05-03T19:58:43.815Z,15.12
2023-05-03T20:01:12.582Z,15.06
2023-05-03T20:03:42.511Z,15.00
2023-05-03T20:06:11.479Z,14.94
2023-05-03T20:08:40.138Z,14.86
2023-05-03T20:11:08.769Z,14.81
2023-05-03T20:13:38.888Z,14.73
2023-05-03T20:16:08.422Z,14.67
2023-05-03T20:18:37.130Z,14.61
2023-05-03T20:21:05.739Z,14.59
2023-05-03T20:23:34.258Z,14.57
2023-05-03T20:26:02.872Z,14.51
2023-05-03T20:28:32.562Z,14.46
2023-05-03T20:31:02.713Z,14.39
2023-05-03T20:33:31.356Z,14.37
2023-05-03T20:35:59.917Z,14.33
2023-05-03T20:38:28.411Z,14.28
2023-05-03T20:40:56.911Z,14.24
2023-05-03T20:43:25.401Z,14.21
2023-05-03T20:45:54.469Z,14.18
2023-05-03T20:48:24.503Z,14.15
2023-05-03T20:50:53.036Z,14.11
2023-05-03T20:53:21.642Z,14.07
2023-05-03T20:55:56.427Z,14.03
2023-05-03T20:58:25.312Z,14.01
2023-05-03T21:00:56.890Z,13.96
2023-05-03T21:03:28.052Z,13.94
2023-05-03T21:05:57.456Z,13.89
2023-05-03T21:08:26.026Z,13.85
2023-05-03T21:10:55.099Z,13.83
2023-05-03T21:13:23.737Z,13.78
2023-05-03T21:15:52.294Z,13.74
2023-05-03T21:18:20.988Z,13.71
2023-05-03T21:20:50.895Z,13.68
2023-05-03T21:23:19.389Z,13.64
2023-05-03T21:25:47.965Z,13.61
2023-05-03T21:28:16.601Z,13.57
2023-05-03T21:30:48.304Z,13.55
2023-05-03T21:33:18.118Z,13.51
2023-05-03T21:35:46.619Z,13.47
2023-05-03T21:38:17.738Z,13.42
2023-05-03T21:40:47.076Z,13.36
2023-05-03T21:43:18.334Z,13.32
2023-05-03T21:45:48.281Z,13.26
2023-05-03T21:48:16.861Z,13.23
2023-05-03T21:50:46.056Z,13.19
2023-05-03T21:53:16.099Z,13.15
2023-05-03T21:55:46.548Z,13.10
2023-05-03T21:58:15.188Z,13.06
2023-05-03T22:00:44.355Z,13.01
2023-05-03T22:03:14.934Z,12.96
2023-05-03T22:05:47.839Z,12.90
2023-05-03T22:08:20.438Z,12.85
2023-05-03T22:10:48.915Z,12.79
2023-05-03T22:13:18.012Z,12.73
2023-05-03T22:15:46.681Z,12.67
2023-05-03T22:18:15.210Z,12.61
2023-05-03T22:20:43.771Z,12.56
2023-05-03T22:23:12.419Z,12.51
2023-05-03T22:25:42.553Z,12.46
2023-05-03T22:28:11.347Z,12.42
2023-05-03T22:30:39.849Z,12.38
2023-05-03T22:33:08.484Z,12.35
2023-05-03T22:35:37.046Z,12.29
2023-05-03T22:38:06.444Z,12.25
2023-05-03T22:40:34.935Z,12.23
2023-05-03T22:43:06.048Z,12.19
2023-05-03T22:45:34.766Z,12.15
2023-05-03T22:48:03.492Z,12.11
2023-05-03T22:50:32.034Z,12.08
2023-05-03T22:53:00.841Z,12.04
2023-05-03T22:55:29.354Z,12.00
2023-05-03T22:58:02.268Z,11.97
2023-05-03T23:00:32.436Z,11.93
2023-05-03T23:03:01.534Z,11.90
2023-05-03T23:05:30.430Z,11.85
2023-05-03T23:07:58.948Z,11.82
2023-05-03T23:10:27.608Z,11.77
2023-05-03T23:12:56.335Z,11.76
2023-05-03T23:15:25.072Z,11.73
2023-05-03T23:17:54.988Z,11.69
2023-05-03T23:20:23.516Z,11.64
2023-05-03T23:22:52.081Z,11.60
2023-05-03T23:25:20.727Z,11.57
2023-05-03T23:27:49.584Z,11.55
2023-05-03T23:30:18.594Z,11.50
2023-05-03T23:32:47.686Z,11.48
2023-05-03T23:35:18.295Z,11.43
2023-05-03T23:37:46.860Z,11.41
2023-05-03T23:40:15.429Z,11.39
2023-05-03T23:42:46.308Z,11.36
2023-05-03T23:45:14.903Z,11.33
2023-05-03T23:47:44.639Z,11.30
2023-05-03T23:50:14.029Z,11.28
2023-05-03T23:52:44.129Z,11.25
2023-05-03T23:55:12.838Z,11.22
2023-05-03T23:57:41.457Z,11.19
